Tiempo atmosférico en la estación meteorológica de Cádiz, Cadiz (1 m.)



Fecha
DESCASC
Temp. máxima en grados centígrados (hora)
DESCASC
Temp. mínima en grados centígrados (hora)
DESCASC
Temp. media en grados centígrados
DESCASC
Racha de viento máxima en m/sg (hora)
DESCASC
Velocidad máxima media en intervalos de 10 minutos(hora)
DESCASC
Precipitaciones diarias en mm
DESCASC
Precipitaciones de 00:00 a 06:00 en mm
DESCASC
Precipitaciones de 06:00 a 12:00 en mm
DESCASC
Precipitaciones de 12:00 a 18:00 en mm
DESCASC
Precipitaciones de 18:00 a 24:00 en mm
DESCASC
23-05-2018 22.9 (16:20) 17.3 (06:30) 20.1 6.67 (17:50) 4.17 (19:10) 0 0 0 0 0
22-05-2018 21.1 (13:20) 16.9 (05:40) 19 8.61 (16:20) 6.11 (16:40) 0 0 0 0 0
21-05-2018 21.8 (16:30) 17.2 (06:20) 19.5 8.61 (17:50) 5.83 (18:00) 0 0 0 0 0
20-05-2018 23 (19:20) 16.3 (00:00) 19.6 7.22 (16:20) 5 (18:10) 0 0 0 0 0
19-05-2018 24.8 (14:20) 16.9 (00:00) 20.8 11.39 (11:00) 8.33 (11:00) 0 0 0 0 0
18-05-2018 24.5 (14:20) 17.6 (00:00) 21.1 15.83 (00:20) 11.11 (00:50) 0 0 0 0 0
17-05-2018 24.8 (14:40) 17.4 (00:00) 21.1 14.72 (02:20) 10.83 (02:00) 0 0 0 0 0
16-05-2018 24.2 (15:30) 17.7 (00:00) 21 17.22 (21:40) 11.67 (18:00) 0 0 0 0 0
15-05-2018 26.8 (19:40) 15.6 (00:00) 21.2 10.83 (23:59) 8.06 (23:59) 0 0 0 0 0
14-05-2018 23.6 (16:30) 15.5 (00:00) 19.6 8.33 (18:40) 6.11 (19:00) 0 0 0 0 0
13-05-2018 20.8 (15:50) 13.1 (00:00) 16.9 11.11 (03:50) 8.61 (04:20) 0 0 0 0 0
12-05-2018 20.7 (17:30) 16.4 (00:00) 18.6 10.28 (20:00) 6.67 (13:30) 0 0 0 0 0
11-05-2018 21 (18:20) 15.3 (07:30) 18.2 7.5 (17:20) 5 (17:50) 0 0 0 0 0
10-05-2018 20.4 (17:40) 15.9 (00:00) 18.1 6.94 (04:40) 3.89 (04:40) 0 0 0 0 0
09-05-2018 19.2 (17:10) 16.8 (00:00) 18 9.72 (03:20) 6.11 (05:30) 0 0 0 0 0
08-05-2018 21.6 (15:40) 16.5 (00:00) 19.1 7.78 (19:50) 5 (17:50) 0 0 0 0 0
07-05-2018 23.5 (18:40) 17.5 (00:00) 20.5 10.83 (00:10) 7.5 (15:20) 0 0 0 0 0
06-05-2018 23.2 (16:20) 16.3 (00:00) 19.8 16.67 (15:50) 11.67 (15:50) 0 0 0 0 0
05-05-2018 23.6 (13:50) 13.9 (00:00) 18.8 10.56 (23:59) 8.06 (23:59) 0 0 0 0 0
04-05-2018 19.9 (16:40) 15.7 (00:00) 17.8 7.5 (17:10) 4.72 (12:20) 0 0 0 0 0
03-05-2018 19.2 (12:40) 11.9 (00:00) 15.6 10.28 (14:50) 7.5 (15:30) 0 0 0 0 0
02-05-2018 17.9 (17:50) 12.1 (00:00) 15 7.5 (15:00) 5 (03:10) 0 0 0 0 0
01-05-2018 17.3 (17:30) 13.4 (07:30) 15.3 12.5 (18:20) 6.67 (18:30) 0.1 0 0 0 0.1
30-04-2018 17.3 (13:10) 11.5 (00:00) 14.4 8.61 (14:10) 5 (01:00) 0 0 0 0 0
29-04-2018 18.2 (17:20) 12.9 (00:00) 15.6 13.06 (01:30) 8.61 (11:20) 1 0.6 0.4 0 0
28-04-2018 18.6 (17:50) 12.9 (00:00) 15.8 16.67 (22:30) 7.22 (22:40) 1.7 0 0 0 1.7
27-04-2018 20.9 (18:00) 16.2 (00:00) 18.6 8.61 (19:10) 5.83 (21:00) 0 0 0 0 0
26-04-2018 20.5 (17:00) 15.9 (00:00) 18.2 9.72 (02:20) 6.39 (02:20) 5.8 5.8 0 0 0
25-04-2018 20.5 (15:40) 16.6 (00:00) 18.6 7.22 (19:30) 4.17 (19:30) 0 0 0 0 0
24-04-2018 22.3 (12:30) 17.2 (00:00) 19.8 7.5 (06:30) 5.28 (11:50) 0 0 0 0 0

Gráficas

Temp. máximas Temp. mínimas Temp. medias Precipitaciones Rachas de viento máximas Velocidades máximas media en intervalos de 10 minutos

Datos horarios

Fecha y hora oficial Temperatura (ºC) Velocidad del viento (km/h) Dirección del viento Racha (km/h) Dirección de racha Precipitación (mm) Presión (hPa) Tendencia (hPa) Humedad (%)
2018-05-23 23:00:00 18.9 9 Oeste 18 Noroeste 0 1014.4 1 82
2018-05-23 22:00:00 19.7 10 Noroeste 22 Noroeste 0 1014 0.9 77
2018-05-23 21:00:00 19.6 14 Noroeste 22 Noroeste 0 1013.8 0.5 75
2018-05-23 20:00:00 20.3 13 Noroeste 21 Noroeste 0 1013.4 0.2 73
2018-05-23 19:00:00 20.9 15 Noroeste 21 Oeste 0 1013.1 -0.6 67
2018-05-23 18:00:00 21.1 13 Oeste 24 Oeste 0 1013.3 -0.7 70
2018-05-23 17:00:00 21.4 14 Oeste 23 Oeste 0 1013.2 -1.4 67
2018-05-23 16:00:00 22.3 13 Oeste 20 Oeste 0 1013.7 -1.4 62
2018-05-23 15:00:00 21.9 9 Oeste 15 Oeste 0 1014 -1.1 62
2018-05-23 14:00:00 21.6 7 Sudoeste 16 Oeste 0 1014.6 -0.5 66
2018-05-23 13:00:00 21.5 6 Sudoeste 16 Oeste 0 1015.1 0 68
2018-05-23 12:00:00 20.5 6 Sudoeste 13 Sudoeste 0 1015.1 0.5 72
2018-05-23 11:00:00 20.3 7 Sudoeste 12 Sudoeste 0 1015.1 0.8 71
2018-05-23 10:00:00 19.6 4 Sur 9 Sur 0 1015.1 1.4 72
2018-05-23 09:00:00 18.9 2 Nordeste 5 Este 0 1014.6 1 85
2018-05-23 08:00:00 18.1 3 Este 6 Este 0 1014.3 0.7 88
2018-05-23 07:00:00 17.3 2 Este 5 Nordeste 0 1013.7 0 88
2018-05-23 06:00:00 17.4 4 Este 9 Norte 0 1013.6 -0.5 88
2018-05-23 05:00:00 17.9 5 Norte 13 Norte 0 1013.6 -0.9 88
2018-05-23 04:00:00 18.2 10 Norte 16 Norte 0 1013.7 -1.3 88
2018-05-23 03:00:00 18.4 12 Norte 15 Norte 0 1014.1 -0.8 86
2018-05-23 02:00:00 18.7 12 Norte 16 Noroeste 0 1014.5 0.1 85
2018-05-23 01:00:00 18.6 11 Noroeste 15 Noroeste 0 1015 1.4 83
2018-05-23 00:00:00 18.7 11 Noroeste 17 Noroeste 0 1014.9 1.8 81
2018-05-22 23:00:00 19.1 12 Noroeste 19 Norte 0 1014.4 1.2 78
2018-05-22 22:00:00 19 14 Noroeste 26 Noroeste 0 1013.6 0.4 77
2018-05-22 21:00:00 19.7 18 Noroeste 25 Noroeste 0 1013.1 -0.3 72
2018-05-22 20:00:00 20.6 14 Noroeste 23 Noroeste 0 1013.2 -0.7 70
2018-05-22 19:00:00 20.1 15 Noroeste 29 Noroeste 0 1013.2 -1.2 69
2018-05-22 18:00:00 20.2 18 Noroeste 27 Oeste 0 1013.4 -1.3 68
2018-05-22 17:00:00 20.2 19 Oeste 31 Oeste 0 1013.9 -1.3 67
2018-05-22 16:00:00 20.4 18 Noroeste 24 Noroeste 0 1014.4 -0.9 66
2018-05-22 15:00:00 20.1 14 Oeste 24 Oeste 0 1014.7 -0.6 65
2018-05-22 14:00:00 19.7 14 Oeste 24 Noroeste 0 1015.2 0 65
2018-05-22 13:00:00 20.4 13 Oeste 20 Sudoeste 0 1015.3 0.3 61
2018-05-22 12:00:00 18.9 6 Norte 12 Noroeste 0 1015.3 0.6 67
2018-05-22 11:00:00 19.9 3 Norte 13 Nordeste 0 1015.2 0.8 65
2018-05-22 10:00:00 17.9 6 Oeste 13 Oeste 0 1015 1.2 69
2018-05-22 09:00:00 17.7 6 Oeste 12 Oeste 0 1014.7 1.1 72
2018-05-22 08:00:00 17.2 5 Noroeste 10 Oeste 0 1014.4 0.8 74
2018-05-22 07:00:00 17.3 3 Oeste 14 Oeste 0 1013.8 0.2 74
2018-05-22 06:00:00 17.2 6 Oeste 15 Oeste 0 1013.6 -0.3 75
2018-05-22 05:00:00 17.1 7 Oeste 15 Sudoeste 0 1013.6 -0.5 75
2018-05-22 04:00:00 17.2 4 Oeste 12 Oeste 0 1013.6 -0.9 74
2018-05-22 03:00:00 17.3 8 Sudoeste 15 Oeste 0 1013.9 -0.9 74
2018-05-22 02:00:00 17.3 6 Oeste 14 Sudoeste 0 1014.1 -0.3 73
2018-05-22 01:00:00 17.4 9 Sudoeste 18 Sudoeste 0 1014.5 0.6 73
2018-05-22 00:00:00 17.7 6 Sudoeste 15 Sudoeste 0 1014.8 1.4 73
2018-05-21 23:00:00 17.5 8 Oeste 17 Sudoeste 0 1014.4 1.4 74
2018-05-21 22:00:00 17.6 10 Oeste 19 Oeste 0 1013.9 1 74
2018-05-21 21:00:00 17.8 10 Sudoeste 22 Sudoeste 0 1013.4 1 73
2018-05-21 20:00:00 18.6 11 Oeste 25 Sudoeste 0 1013 0.4 71
2018-05-21 19:00:00 19.1 18 Sudoeste 27 Sudoeste 0 1012.9 0.4 68
2018-05-21 18:00:00 20.3 21 Sudoeste 31 Sudoeste 0 1012.4 -0.3 67
2018-05-21 17:00:00 21.3 16 Oeste 28 Oeste 0 1012.6 -0.5 67
2018-05-21 16:00:00 21.1 18 Sudoeste 26 Sudoeste 0 1012.5 -0.8 68
2018-05-21 15:00:00 21.3 12 Sudoeste 21 Sudoeste 0 1012.7 -0.5 73
2018-05-21 14:00:00 20.2 13 Sur 21 Sudoeste 0 1013.1 0.2 74
2018-05-21 13:00:00 20.1 12 Sur 21 Sudoeste 0 1013.3 0.8 75
2018-05-21 12:00:00 19.3 14 Sur 21 Sur 0 1013.2 1.1 79
2018-05-21 11:00:00 18.5 9 Sur 20 Sur 0 1012.9 1.1 86
2018-05-21 10:00:00 18.5 13 Sur 22 Sur 0 1012.5 0.9 81
2018-05-21 09:00:00 18.9 15 Sur 22 Sur 0 1012.1 0.5 77
2018-05-21 08:00:00 18.1 5 Sur 9 Sur 0 1011.8 0.4 81
2018-05-21 07:00:00 17.5 3 Sur 6 Sur 0 1011.6 0 76
2018-05-21 06:00:00 17.4 0 Calma 6 Nordeste 0 1011.6 -0.3 75
2018-05-21 05:00:00 17.9 3 Este 12 Este 0 1011.4 -1.1 73
2018-05-21 04:00:00 18.4 3 Nordeste 12 Sudeste 0 1011.6 -1 73
2018-05-21 03:00:00 18.6 5 Este 11 Este 0 1011.9 -0.8 76
2018-05-21 02:00:00 18.5 7 Este 14 Norte 0 1012.5 -0.2 76
2018-05-21 01:00:00 19.3 11 Noroeste 13 Norte 0 1012.6 0.5 79
2018-05-21 00:00:00 19.6 5 Norte 9 Norte 0 1012.7 0.9 78
2018-05-20 23:00:00 19.9 3 Noroeste 6 Noroeste 0 1012.7 0.7 75
2018-05-20 22:00:00 19.5 5 Noroeste 21 Nordeste 0 1012.1 -0.1 78
2018-05-20 21:00:00 20.4 7 Noroeste 17 Oeste 0 1011.8 -0.9 72
2018-05-20 20:00:00 20.6 10 Oeste 15 Oeste 0 1012 -0.5 70
2018-05-20 19:00:00 22.3 9 Noroeste 24 Noroeste 0 1012.2 0 66
2018-05-20 18:00:00 20.5 17 Noroeste 25 Oeste 0 1012.7 -0.2 71
2018-05-20 17:00:00 21.6 13 Oeste 26 Oeste 0 1012.5 -1 65
2018-05-20 16:00:00 22.4 13 Sudoeste 23 Oeste 0 1012.2 -1.6 62
2018-05-20 15:00:00 22.1 14 Sudoeste 24 Sudoeste 0 1012.9 -1.1 65
2018-05-20 14:00:00 20.9 15 Sudoeste 24 Oeste 0 1013.5 -0.4 70
2018-05-20 13:00:00 20.7 16 Sudoeste 22 Oeste 0 1013.8 -0.4 64
2018-05-20 12:00:00 21 9 Sudoeste 15 Sudoeste 0 1014 0 57
2018-05-20 11:00:00 21.6 3 Este 8 Este 0 1013.9 0.2 58
2018-05-20 10:00:00 19.8 4 Nordeste 9 Este 0 1014.2 0.5 64
2018-05-20 09:00:00 18.3 8 Este 10 Este 0 1014 0.5 69
2018-05-20 08:00:00 17 5 Nordeste 10 Nordeste 0 1013.7 -0.1 73
2018-05-20 07:00:00 16.7 5 Norte 11 Norte 0 1013.7 -0.7 74
2018-05-20 06:00:00 16.7 4 Nordeste 11 Nordeste 0 1013.5 -1.3 69
2018-05-20 05:00:00 16.9 7 Nordeste 16 Este 0 1013.8 -1.4 69
2018-05-20 04:00:00 17.6 9 Este 13 Este 0 1014.4 -0.9 66
2018-05-20 03:00:00 17.9 3 Este 11 Nordeste 0 1014.8 -0.2 64
2018-05-20 02:00:00 18.4 6 Nordeste 14 Nordeste 0 1015.2 0 62
2018-05-20 01:00:00 18.8 8 Nordeste 21 Sudeste 0 1015.3 0.2 60
2018-05-20 00:00:00 19.7 15 Sudeste 21 Sudeste 0 1015 0.9 60
2018-05-19 23:00:00 19.8 13 Este 18 Sudeste 0 1015.2 1.4 68
2018-05-19 22:00:00 20.7 13 Nordeste 22 Este 0 1015.1 2 61
2018-05-19 21:00:00 21.8 17 Este 26 Este 0 1014.1 0.9 58
2018-05-19 20:00:00 23.1 19 Este 29 Sudeste 0 1013.8 0.1 52
2018-05-19 19:00:00 23.6 21 Sudeste 28 Sudeste 0 1013.1 -1.1 53
2018-05-19 18:00:00 24.1 18 Sudeste 27 Sudeste 0 1013.2 -1.4 50
2018-05-19 17:00:00 23.9 12 Sur 28 Sur 0 1013.7 -1.3 53
2018-05-19 16:00:00 24.1 22 Sudeste 33 Sudeste 0 1014.2 -1 48
2018-05-19 15:00:00 24.7 17 Sudeste 33 Este 0 1014.6 -0.5 47
2018-05-19 14:00:00 24.3 23 Este 32 Este 0 1015 0.4 48
2018-05-19 13:00:00 24.3 22 Este 34 Este 0 1015.2 0.8 50
2018-05-19 12:00:00 23.4 18 Este 33 Este 0 1015.1 1 53
2018-05-19 11:00:00 21.4 30 Este 41 Sudeste 0 1014.6 1 57
2018-05-19 10:00:00 20.4 17 Este 28 Este 0 1014.4 1.1 61
2018-05-19 09:00:00 18.2 9 Nordeste 17 Este 0 1014.1 0.9 63
2018-05-19 08:00:00 17.3 11 Nordeste 22 Este 0 1013.6 -0.2 64
2018-05-19 07:00:00 17.1 11 Nordeste 19 Este 0 1013.3 -0.5 67
2018-05-19 06:00:00 17 9 Nordeste 17 Este 0 1013.2 -1.1 69
2018-05-19 05:00:00 17.2 7 Este 21 Este 0 1013.8 -0.5 69
2018-05-19 04:00:00 17.5 12 Este 20 Este 0 1013.8 -0.8 66
2018-05-19 03:00:00 17.7 7 Este 32 Este 0 1014.3 0 65
2018-05-19 02:00:00 17.9 13 Este 24 Este 0 1014.3 0.6 65
2018-05-19 01:00:00 18.1 9 Este 24 Este 0 1014.6 1.5 63
2018-05-19 00:00:00 19 19 Este 36 Este 0 1014.3 1.4 60
2018-05-18 23:00:00 19.5 21 Este 33 Este 0 1013.7 1 56
2018-05-18 22:00:00 20.2 24 Este 36 Sudeste 0 1013.1 0.6 54
2018-05-18 21:00:00 21.2 31 Sudeste 46 Sudeste 0 1012.9 0.4 49
2018-05-18 20:00:00 22.7 25 Este 32 Este 0 1012.7 0 49
2018-05-18 19:00:00 23 27 Sudeste 36 Sudeste 0 1012.5 -0.8 48
2018-05-18 18:00:00 23.6 27 Sudeste 34 Sudeste 0 1012.5 -1 47
2018-05-18 17:00:00 24 21 Sudeste 32 Sudeste 0 1012.7 -1.7 46
2018-05-18 16:00:00 24 20 Sudeste 36 Sudeste 0 1013.3 -1.5 49
2018-05-18 15:00:00 23.6 25 Sudeste 34 Sudeste 0 1013.5 -1.3 49
2018-05-18 14:00:00 23.7 21 Este 35 Sudeste 0 1014.4 -0.3 48
2018-05-18 13:00:00 23.6 20 Este 29 Este 0 1014.8 0.9 53
2018-05-18 12:00:00 22.7 20 Este 32 Este 0 1014.8 1.1 56
2018-05-18 11:00:00 21.9 18 Este 30 Este 0 1014.7 1 57
2018-05-18 10:00:00 20.1 19 Este 35 Este 0 1013.9 0.7 63
2018-05-18 09:00:00 19.1 10 Este 19 Este 0 1013.7 0.9 63
2018-05-18 08:00:00 17.6 11 Nordeste 21 Este 0 1013.7 0.7 69
2018-05-18 07:00:00 17.9 18 Este 30 Este 0 1013.2 0.2 67
2018-05-18 06:00:00 17.9 23 Sudeste 38 Sudeste 0 1012.8 -0.9 71
2018-05-18 05:00:00 18.2 27 Sudeste 41 Sudeste 0 1013 -0.9 71
2018-05-18 04:00:00 18.3 35 Sudeste 50 Sudeste 0 1013 -1 70
2018-05-18 03:00:00 18.4 32 Sudeste 48 Sudeste 0 1013.7 -0.2 73
2018-05-18 02:00:00 18.5 35 Sudeste 49 Este 0 1013.9 0.3 74
2018-05-18 01:00:00 18.5 38 Este 57 Este 0 1014 1.2 76
2018-05-18 00:00:00 18.3 36 Sudeste 49 Sudeste 0 1013.9 1.3 75
2018-05-17 23:00:00 18.8 31 Sudeste 43 Sudeste 0 1013.6 1.6 71
2018-05-17 22:00:00 19.3 32 Sudeste 42 Sudeste 0 1012.8 0.6 66
2018-05-17 21:00:00 20.5 30 Sudeste 41 Sudeste 0 1012.6 0.4 61
2018-05-17 20:00:00 21.1 30 Sudeste 38 Sudeste 0 1012 0 63
2018-05-17 19:00:00 22.1 27 Sudeste 40 Sudeste 0 1012.2 0 58
2018-05-17 18:00:00 22.4 31 Sudeste 40 Sudeste 0 1012.2 0.1 53
2018-05-17 17:00:00 23.5 25 Sudeste 32 Sudeste 0 1012 -0.1 55
2018-05-17 16:00:00 24.2 19 Sudeste 30 Sudeste 0 1012.2 0 52
2018-05-17 15:00:00 24 15 Sudeste 26 Sudeste 0 1012.1 0 55
2018-05-17 14:00:00 23.6 22 Sudeste 30 Sudeste 0 1012.1 0.2 51
2018-05-17 13:00:00 23.4 17 Sudeste 27 Sudeste 0 1012.2 0.1 51
2018-05-17 12:00:00 23 15 Sudeste 32 Sudeste 0 1012.1 -0.1 55
2018-05-17 11:00:00 21.3 18 Este 35 Este 0 1011.9 0.4 60
2018-05-17 10:00:00 20 19 Este 32 Este 0 1012.1 1.2 62
2018-05-17 09:00:00 19.1 8 Este 18 Este 0 1012.2 1.4 66
2018-05-17 08:00:00 17.9 10 Este 20 Este 0 1011.5 0.7 68
2018-05-17 07:00:00 17.7 17 Sudeste 29 Sudeste 0 1010.9 0.1 68
2018-05-17 06:00:00 18 21 Sudeste 36 Sudeste 0 1010.8 -0.2 67
2018-05-17 05:00:00 18.1 30 Sudeste 46 Este 0 1010.8 0 67
2018-05-17 04:00:00 18.1 37 Este 51 Este 0 1010.8 -0.2 66
2018-05-17 03:00:00 18.3 36 Este 53 Sudeste 0 1011 0.2 64
2018-05-17 02:00:00 18.4 39 Sudeste 51 Sudeste 0 1010.8 0.5 64
2018-05-17 01:00:00 18.4 35 Sudeste 50 Este 0 1011 1.3 65
2018-05-17 00:00:00 18.4 37 Sudeste 52 Sudeste 0 1010.8 1.6 64
2018-05-16 23:00:00 18.7 38 Sudeste 58 Este 0 1010.3 1.4 61
2018-05-16 22:00:00 19.5 40 Sudeste 62 Sudeste 0 1009.7 1 53
2018-05-16 21:00:00 20.8 39 Sudeste 59 Este 0 1009.2 0.3 46
2018-05-16 20:00:00 21.8 39 Sudeste 55 Sudeste 0 1008.9 -0.3 46
2018-05-16 19:00:00 22.2 40 Sudeste 54 Sudeste 0 1008.7 -1.2 46
2018-05-16 18:00:00 22.6 42 Sudeste 54 Sudeste 0 1008.9 -1.6 45
2018-05-16 17:00:00 23.4 36 Este 47 Este 0 1009.2 -1.8 44
2018-05-16 16:00:00 23.8 33 Este 53 Este 0 1009.9 -1.6 44
2018-05-16 15:00:00 23.9 35 Este 52 Este 0 1010.5 -1.2 42
2018-05-16 14:00:00 23.2 34 Este 47 Sudeste 0 1011 -0.6 42
2018-05-16 13:00:00 23.2 34 Este 47 Este 0 1011.5 0.1 42
2018-05-16 12:00:00 22.8 29 Este 46 Este 0 1011.7 0.3 43
2018-05-16 11:00:00 21.8 37 Este 50 Este 0 1011.6 0.2 42
2018-05-16 10:00:00 20.8 25 Este 39 Este 0 1011.4 0 45
2018-05-16 09:00:00 19.2 25 Este 35 Este 0 1011.4 0.1 50
2018-05-16 08:00:00 18.3 27 Este 39 Este 0 1011.4 -0.3 54
2018-05-16 07:00:00 17.8 28 Este 44 Este 0 1011.4 -0.6 56
2018-05-16 06:00:00 18 34 Este 45 Este 0 1011.3 -1.2 55
2018-05-16 05:00:00 18 28 Este 37 Este 0 1011.7 -1.4 54
2018-05-16 04:00:00 18.2 30 Este 40 Este 0 1012 -1.2 51
2018-05-16 03:00:00 18.6 27 Este 37 Este 0 1012.5 -0.6 47
2018-05-16 02:00:00 19 24 Este 37 Este 0 1013.1 0.1 44
2018-05-16 01:00:00 19.4 28 Este 37 Este 0 1013.2 0.5 42
2018-05-16 00:00:00 19.6 29 Este 39 Este 0 1013.1 0.5 41
2018-05-15 23:00:00 20.1 23 Sudeste 32 Este 0 1013 0.9 40
2018-05-15 22:00:00 21.6 12 Este 19 Este 0 1012.7 0.5 38
2018-05-15 21:00:00 23.2 11 Sudeste 24 Sudeste 0 1012.6 0 44
2018-05-15 20:00:00 25.6 9 Sudeste 28 Sudeste 0 1012.1 -0.7 35
2018-05-15 19:00:00 24.7 10 Oeste 20 Oeste 0 1012.2 -1.2 35
2018-05-15 18:00:00 25.8 14 Sudeste 31 Este 0 1012.6 -1.4 38
2018-05-15 17:00:00 25.3 23 Sudeste 30 Sudeste 0 1012.8 -1.5 36
2018-05-15 16:00:00 25.7 20 Sudeste 27 Sudeste 0 1013.4 -1.5 34
2018-05-15 15:00:00 25.3 21 Sudeste 29 Sudeste 0 1014 -1.3 35
2018-05-15 14:00:00 25.5 16 Este 27 Este 0 1014.3 -1 35
2018-05-15 13:00:00 23.6 4 Norte 12 Noroeste 0 1014.9 -0.3 44
2018-05-15 12:00:00 21.5 10 Noroeste 13 Noroeste 0 1015.3 0.1 51
2018-05-15 11:00:00 21 7 Nordeste 11 Nordeste 0 1015.3 0.5 44
2018-05-15 10:00:00 18.7 5 Nordeste 9 Norte 0 1015.2 0.8 52
2018-05-15 09:00:00 16.4 8 Norte 10 Norte 0 1015.2 1.1 62
2018-05-15 08:00:00 16.1 4 Norte 9 Norte 0 1014.8 0.7 64
2018-05-15 07:00:00 15.9 5 Norte 11 Norte 0 1014.4 0.2 64
2018-05-15 06:00:00 16.7 6 Este 14 Este 0 1014.1 -0.3 56
2018-05-15 05:00:00 16.8 7 Este 17 Este 0 1014.1 -0.7 57
2018-05-15 04:00:00 17.3 9 Este 16 Este 0 1014.2 -1.2 57
2018-05-15 03:00:00 17.3 5 Este 11 Este 0 1014.4 -1.2 69
2018-05-15 02:00:00 18.6 4 Sudeste 6 Sudeste 0 1014.8 -0.6 69
2018-05-15 01:00:00 18.5 5 Sudeste 12 Sur 0 1015.4 0.9 72
2018-05-15 00:00:00 18.8 3 Oeste 8 Sur 0 1015.6 1.5 73
2018-05-14 23:00:00 19.8 3 Sudeste 16 Noroeste 0 1015.4 1.3 70
2018-05-14 22:00:00 19.8 14 Noroeste 22 Oeste 0 1014.5 0.1 66
2018-05-14 21:00:00 20.3 15 Noroeste 30 Noroeste 0 1014.1 -0.5 65
2018-05-14 20:00:00 21 20 Noroeste 28 Noroeste 0 1014.1 -0.9 56
2018-05-14 19:00:00 21.2 22 Noroeste 30 Oeste 0 1014.4 -1.3 52
2018-05-14 18:00:00 21.3 20 Noroeste 28 Oeste 0 1014.6 -1.7 53
2018-05-14 17:00:00 21.9 18 Oeste 24 Noroeste 0 1015 -1.9 50
2018-05-14 16:00:00 23 18 Norte 25 Norte 0 1015.7 -1.6 43
2018-05-14 15:00:00 22.7 17 Norte 24 Norte 0 1016.3 -1.3 45
2018-05-14 14:00:00 21.9 18 Norte 24 Norte 0 1016.9 -1.1 45
2018-05-14 13:00:00 21 17 Norte 22 Norte 0 1017.3 -1 48
2018-05-14 12:00:00 19.6 16 Norte 24 Norte 0 1017.6 -0.8 49
2018-05-14 11:00:00 17.9 19 Norte 25 Norte 0 1018 -0.5 52
2018-05-14 10:00:00 16.3 21 Norte 30 Norte 0 1018.3 0.2 56
2018-05-14 09:00:00 15.8 16 Norte 27 Norte 0 1018.4 0.5 59
2018-05-14 08:00:00 15.7 17 Norte 26 Norte 0 1018.5 0.1 55
2018-05-14 07:00:00 15.9 18 Norte 26 Norte 0 1018.1 -0.5 54
2018-05-14 06:00:00 16.3 17 Norte 22 Norte 0 1017.9 -1.4 57
2018-05-14 05:00:00 16.3 12 Norte 19 Norte 0 1018.4 -1.3 57
2018-05-14 04:00:00 16.1 14 Norte 17 Norte 0 1018.6 -1.3 59
2018-05-14 03:00:00 16 11 Norte 16 Norte 0 1019.3 -0.8 67
2018-05-14 02:00:00 16.9 13 Norte 20 Norte 0 1019.7 0.1 62
2018-05-14 01:00:00 18.6 13 Norte 18 Norte 0 1019.9 0.8 60
2018-05-11 20:00:00 19.3 10 Sudoeste 20 Oeste 0 1017.6 -0.8 62
2018-05-11 19:00:00 19.7 12 Oeste 26 Sudoeste 0 1018 -1 60
2018-05-11 18:00:00 20.5 15 Oeste 27 Sudoeste 0 1018.1 -1.2 56
2018-05-11 17:00:00 20.4 16 Sudoeste 26 Sudoeste 0 1018.4 -0.7 58
2018-05-11 16:00:00 19.8 10 Sudoeste 21 Sur 0 1019 -0.4 61
2018-05-11 15:00:00 20.1 12 Sur 19 Sur 0 1019.3 -0.1 61
2018-05-11 14:00:00 20.2 12 Sur 22 Sur 0 1019.1 0 59
2018-05-11 13:00:00 20 8 Sur 14 Sur 0 1019.4 0.6 57
2018-05-11 12:00:00 19.9 7 Sur 14 Sudeste 0 1019.4 1 58
2018-05-11 11:00:00 18.4 8 Sur 14 Sudeste 0 1019.1 1.4 64
2018-05-11 10:00:00 17.4 10 Sudeste 16 Sudeste 0 1018.8 1.7 73
2018-05-11 09:00:00 16 12 Sudeste 16 Sudeste 0 1018.4 1.3 80
2018-05-11 08:00:00 15.5 11 Sudeste 17 Sudeste 0 1017.7 0.9 81
2018-05-11 07:00:00 15.6 15 Sudeste 18 Sudeste 0 1017.1 -0.1 80
2018-05-11 06:00:00 15.8 9 Sudeste 15 Sudeste 0 1017.1 -0.2 80
2018-05-11 05:00:00 15.8 10 Este 14 Sudeste 0 1016.8 -0.7 78
2018-05-11 04:00:00 16.3 10 Sudeste 16 Sur 0 1017.2 -0.4 72
2018-05-11 03:00:00 16.3 6 Sur 13 Sur 0 1017.3 -0.3 71
2018-05-11 02:00:00 15.9 5 Sudoeste 10 Sudoeste 0 1017.5 -0.1 75
2018-05-11 01:00:00 15.7 3 Sudoeste 5 Sudoeste 0 1017.6 0.7 73
2018-05-11 00:00:00 16.1 0 Calma 5 Oeste 0 1017.6 1.2 71
2018-05-10 23:00:00 16.1 3 Sudoeste 9 Sudoeste 0 1017.6 1.5 69
2018-05-10 22:00:00 16.4 4 Sudoeste 11 Sudoeste 0 1016.9 0.9 68
2018-05-10 21:00:00 17.6 6 Oeste 17 Sudoeste 0 1016.4 0.3 63
2018-05-10 20:00:00 18.4 10 Sudoeste 21 Sudoeste 0 1016.1 -0.2 59
2018-05-10 19:00:00 18.8 13 Sudoeste 23 Sudoeste 0 1016 -1 60
2018-05-10 18:00:00 19.4 10 Sudoeste 18 Sudoeste 0 1016.1 -0.8 61
2018-05-10 17:00:00 19.9 6 Sur 18 Sudoeste 0 1016.3 -0.3 59
2018-05-10 16:00:00 19.7 8 Sudoeste 18 Sudoeste 0 1017 0.4 59
2018-05-10 15:00:00 19.1 13 Oeste 20 Oeste 0 1016.9 0.8 61
2018-05-10 14:00:00 18.6 10 Oeste 19 Oeste 0 1016.6 0.8 64
2018-05-10 13:00:00 17.3 11 Oeste 19 Oeste 0 1016.6 1 69
2018-05-10 12:00:00 17.6 9 Oeste 15 Oeste 0 1016.1 0.8 66
2018-05-10 11:00:00 17.3 3 Norte 7 Norte 0 1015.8 0.9 71
2018-05-10 10:00:00 16.4 6 Noroeste 12 Norte 0 1015.6 1.3 75
2018-05-10 09:00:00 16.2 10 Noroeste 14 Noroeste 0 1015.3 1.2 77
2018-05-10 08:00:00 16.5 9 Noroeste 18 Noroeste 0 1014.9 0.8 78
2018-05-10 07:00:00 16.5 8 Noroeste 15 Noroeste 0 1014.3 0 80
2018-05-10 06:00:00 16.4 13 Noroeste 21 Sudoeste 0 1014.1 -0.7 82
2018-05-10 05:00:00 17.1 12 Sudoeste 25 Oeste 0 1014.1 -0.9 87
2018-05-10 04:00:00 16.9 14 Sudoeste 24 Sudoeste 0 1014.3 -1 86
2018-05-10 03:00:00 16.9 12 Sudoeste 24 Sudoeste 0 1014.8 -0.7 85
2018-05-10 02:00:00 17.1 14 Sudoeste 23 Sudoeste 0 1015 -0.5 85
2018-05-10 01:00:00 17.3 9 Sudoeste 14 Oeste 0 1015.3 0.5 80
2018-05-10 00:00:00 17.1 8 Sudoeste 15 Sudoeste 0 1015.5 1 79
2018-05-09 23:00:00 17.5 9 Sudoeste 20 Sudoeste 0 1015.5 1.3 79
2018-05-09 22:00:00 17.3 9 Sudoeste 19 Sudoeste 0 1014.8 0.4 77
2018-05-09 21:00:00 17.4 10 Sudoeste 21 Sudoeste 0 1014.5 0.2 77
2018-05-09 20:00:00 17.6 10 Sudoeste 18 Sudoeste 0 1014.2 -0.2 78
2018-05-09 19:00:00 17.9 12 Sudoeste 19 Sudoeste 0 1014.4 -0.4 77
2018-05-09 18:00:00 18.8 8 Sudoeste 14 Sudoeste 0 1014.3 -0.9 72
2018-05-09 17:00:00 19 6 Sudoeste 16 Oeste 0 1014.4 -0.5 73
2018-05-09 16:00:00 18.3 9 Oeste 17 Sudoeste 0 1014.8 -0.1 80
2018-05-09 15:00:00 18.8 10 Oeste 19 Sudoeste 0 1015.2 0.6 77
2018-05-09 14:00:00 18.4 11 Sudoeste 20 Sudoeste 0 1014.9 0.5 78
2018-05-09 13:00:00 17.6 12 Sur 20 Sur 0 1014.9 1 84
2018-05-09 12:00:00 17.7 11 Sur 16 Sur 0 1014.6 1.5 84
2018-05-09 11:00:00 17.6 9 Sudoeste 17 Sudoeste 0 1014.4 1.7 83
2018-05-09 10:00:00 17.2 9 Sudoeste 30 Sur 0 1013.9 1.7 88
2018-05-09 09:00:00 17.1 19 Sur 32 Sur 0 1013.1 1.2 92
2018-05-09 08:00:00 17.1 17 Sur 31 Sur 0 1012.7 0.5 90
2018-05-09 07:00:00 17.4 17 Sur 33 Sur 0 1012.2 -0.2 89
2018-05-09 06:00:00 17.5 16 Sur 32 Sur 0 1011.9 -0.7 88
2018-05-09 05:00:00 17.3 16 Sur 26 Sur 0 1012.2 -1.1 87
2018-05-09 04:00:00 17.1 14 Sur 35 Sur 0 1012.4 -1.2 87
2018-05-09 03:00:00 17.3 17 Sur 27 Sur 0 1012.6 -0.8 87
2018-05-09 02:00:00 17.1 15 Sur 27 Sur 0 1013.3 0.1 86
2018-05-09 01:00:00 17.1 14 Sur 27 Sur 0 1013.6 1 87
2018-05-09 00:00:00 17.1 14 Sur 22 Sur 0 1013.4 1.2 87
2018-05-08 23:00:00 17.3 12 Sur 17 Sur 0 1013.2 1.3 87
2018-05-08 22:00:00 17.5 8 Sudoeste 17 Sudoeste 0 1012.6 0.4 86
2018-05-08 21:00:00 17.8 9 Sudoeste 22 Sudoeste 0 1012.2 -0.1 84
2018-05-08 20:00:00 18.8 13 Sudoeste 28 Oeste 0 1011.9 -0.9 78
2018-05-08 19:00:00 19.7 17 Oeste 27 Sudoeste 0 1012.2 -1 75
2018-05-08 18:00:00 20.5 15 Oeste 26 Oeste 0 1012.3 -1.1 73
2018-05-08 17:00:00 21.2 13 Oeste 24 Oeste 0 1012.8 -0.9 71
2018-05-08 16:00:00 20.8 17 Oeste 28 Sudoeste 0 1013.2 -0.8 72
2018-05-08 15:00:00 20.8 16 Oeste 26 Oeste 0 1013.4 -1.1 71
2018-05-08 14:00:00 20.5 17 Sudoeste 23 Oeste 0 1013.7 -0.8 71
2018-05-08 13:00:00 20.4 13 Sudoeste 21 Sudoeste 0 1014 -0.5 74
2018-05-08 12:00:00 19.4 11 Oeste 19 Oeste 0 1014.5 0.5 80
2018-05-08 11:00:00 19.1 9 Sudoeste 18 Sur 0 1014.5 0.7 84
2018-05-08 10:00:00 18.2 10 Sudoeste 18 Sudoeste 0 1014.5 1 83
2018-05-08 09:00:00 17.5 8 Sudoeste 14 Sudoeste 0 1014 0.4 88
2018-05-08 08:00:00 16.8 6 Sudoeste 10 Sudoeste 0 1013.8 0 88
2018-05-08 07:00:00 16.8 4 Sur 9 Sudeste 0 1013.5 -0.3 87
2018-05-08 06:00:00 16.6 3 Sur 12 Sudeste 0 1013.6 -0.8 87
2018-05-08 05:00:00 17 5 Sudeste 7 Sudeste 0 1013.8 -1 86
2018-05-08 04:00:00 17.1 2 Sudoeste 4 Sur 0 1013.8 -1.3 84
2018-05-08 03:00:00 17.6 2 Sudeste 7 Sur 0 1014.4 -0.9 83
2018-05-08 02:00:00 17.6 5 Noroeste 12 Noroeste 0 1014.8 -0.1 82
2018-05-08 01:00:00 17.8 6 Noroeste 15 Noroeste 0 1015.1 1.2 81
2018-05-08 00:00:00 18 8 Noroeste 16 Oeste 0 1015.3 1.4 80
2018-05-07 23:00:00 17.8 9 Oeste 18 Oeste 0 1014.9 1.3 80
2018-05-07 22:00:00 18.1 10 Oeste 15 Sudoeste 0 1013.9 0.8 74
2018-05-07 21:00:00 18.7 9 Sudoeste 18 Noroeste 0 1013.9 0.8 69
2018-05-07 20:00:00 19.3 12 Oeste 25 Oeste 0 1013.6 0.3 69
2018-05-07 19:00:00 21.1 13 Oeste 18 Oeste 0 1013.1 -0.8 59
2018-05-07 18:00:00 21.8 9 Sur 24 Sudeste 0 1013.1 -0.9 59
2018-05-07 17:00:00 22.2 22 Sudeste 32 Sudeste 0 1013.3 -1.4 54
2018-05-07 16:00:00 21.5 23 Sudeste 35 Este 0 1013.9 -1.4 57
2018-05-07 15:00:00 21.1 26 Sudeste 34 Sudeste 0 1014 -1.6 58
2018-05-07 14:00:00 20.6 13 Sudeste 28 Sur 0 1014.7 -0.3 66
2018-05-07 13:00:00 20.2 15 Sur 21 Sur 0 1015.3 0.9 68
2018-05-07 12:00:00 19.8 13 Sudeste 33 Sudeste 0 1015.6 1.6 64
2018-05-07 11:00:00 19.1 20 Este 34 Este 0 1015 1.3 66
2018-05-07 10:00:00 19.7 12 Este 21 Este 0 1014.4 1.1 62
2018-05-07 09:00:00 18.6 6 Nordeste 16 Este 0 1014 0.9 64
2018-05-07 08:00:00 18.2 7 Este 26 Este 0 1013.7 0.9 65
2018-05-07 07:00:00 17.8 8 Este 16 Este 0 1013.3 0.6 63
2018-05-07 06:00:00 18.1 8 Este 17 Este 0 1013.1 0.4 63
2018-05-07 05:00:00 18.5 15 Este 20 Este 0 1012.8 -0.2 62
2018-05-07 04:00:00 18.3 14 Este 31 Este 0 1012.7 -0.6 63
2018-05-07 03:00:00 18.2 10 Este 28 Este 0 1012.7 -0.3 63
2018-05-07 02:00:00 18.1 10 Este 24 Este 0 1013 0.3 63
2018-05-07 01:00:00 17.9 11 Nordeste 39 Este 0 1013.3 0.7 64
2018-05-07 00:00:00 18.3 30 Este 51 Este 0 1013 0.9 66
2018-05-06 23:00:00 18.9 38 Este 50 Este 0 1012.7 1.4 64
2018-05-06 22:00:00 19.1 32 Este 45 Este 0 1012.6 1.2 62
2018-05-06 21:00:00 19.8 35 Este 52 Este 0 1012.1 0.4 60
2018-05-06 20:00:00 21 38 Este 54 Este 0 1011.3 -0.7 54
2018-05-06 19:00:00 22 33 Este 54 Este 0 1011.4 -1.1 51
2018-05-06 18:00:00 22.3 32 Este 52 Este 0 1011.7 -1.1 50
2018-05-06 17:00:00 22.6 41 Este 53 Este 0 1012 -1.1 49
2018-05-06 16:00:00 22.8 40 Este 60 Este 0 1012.5 -1.1 48
2018-05-06 15:00:00 22.9 39 Este 53 Este 0 1012.8 -1.1 50
2018-05-06 14:00:00 22.6 37 Este 54 Este 0 1013.1 -0.7 50
2018-05-06 13:00:00 22.5 39 Este 54 Este 0 1013.6 -0.2 48
2018-05-06 12:00:00 21.9 33 Este 55 Este 0 1013.9 0.4 48
2018-05-06 11:00:00 21.1 28 Este 43 Este 0 1013.8 0.4 51
2018-05-06 10:00:00 19.9 20 Este 36 Este 0 1013.8 1 53
2018-05-06 09:00:00 18.4 10 Este 26 Este 0 1013.5 0.8 58
2018-05-06 08:00:00 17.1 14 Este 29 Este 0 1013.4 0.5 63
2018-05-06 07:00:00 16.8 12 Nordeste 24 Este 0 1012.8 -0.4 60
2018-05-06 06:00:00 16.5 9 Nordeste 22 Este 0 1012.7 -1 62
2018-05-06 05:00:00 16.8 10 Nordeste 23 Este 0 1012.9 -1.3 62
2018-05-06 04:00:00 16.8 10 Nordeste 21 Este 0 1013.2 -0.6 66
2018-05-06 03:00:00 16.9 6 Este 26 Este 0 1013.7 -0.3 65
2018-05-06 02:00:00 17.6 13 Este 44 Este 0 1014.2 0.2 62
2018-05-06 01:00:00 18.3 32 Este 50 Este 0 1013.8 0.2 61
2018-05-06 00:00:00 18.5 29 Este 38 Sudeste 0 1014 0.7 60
2018-05-05 23:00:00 19.4 18 Este 28 Sudeste 0 1014 0.8 54
2018-05-05 22:00:00 19.2 3 Sudoeste 10 Sudoeste 0 1013.6 0.1 73
2018-05-05 21:00:00 20.6 3 Noroeste 12 Noroeste 0 1013.3 -0.2 67
2018-05-05 20:00:00 20.5 9 Noroeste 16 Oeste 0 1013.2 -0.3 65
2018-05-05 19:00:00 21.1 8 Oeste 21 Oeste 0 1013.5 -0.7 62
2018-05-05 18:00:00 20.3 13 Oeste 25 Oeste 0 1013.5 -0.9 65
2018-05-05 17:00:00 21.5 17 Oeste 26 Oeste 0 1013.5 -1.1 60
2018-05-05 16:00:00 21.3 16 Oeste 23 Sudoeste 0 1014.2 -0.9 59
2018-05-05 15:00:00 20.8 18 Sudoeste 24 Oeste 0 1014.4 -0.8 60
2018-05-05 14:00:00 23.4 14 Sudeste 24 Sudeste 0 1014.6 -0.7 47
2018-05-05 13:00:00 22.5 17 Este 21 Este 0 1015.1 -0.2 50
2018-05-05 12:00:00 21.7 16 Este 24 Este 0 1015.2 0.5 53
2018-05-05 11:00:00 19.8 17 Este 23 Este 0 1015.3 0.9 60
2018-05-05 10:00:00 17.8 5 Este 15 Este 0 1015.3 1.4 71
2018-05-05 09:00:00 15.7 10 Este 16 Este 0 1014.7 0.8 80
2018-05-05 08:00:00 14.1 3 Este 10 Nordeste 0 1014.4 0.7 80
2018-05-05 07:00:00 14.2 3 Nordeste 8 Nordeste 0 1013.9 0.3 82
2018-05-05 06:00:00 14.4 4 Norte 14 Nordeste 0 1013.9 -0.2 83
2018-05-05 05:00:00 14.6 8 Nordeste 14 Nordeste 0 1013.7 -0.5 86
2018-05-05 04:00:00 14.9 4 Norte 8 Nordeste 0 1013.6 -0.6 87
2018-05-05 03:00:00 15.5 5 Este 14 Este 0 1014.1 0 85
2018-05-05 02:00:00 15.9 0 Calma 10 Este 0 1014.2 0.2 84
2018-05-05 01:00:00 16.8 5 Nordeste 12 Este 0 1014.2 1 81
2018-05-05 00:00:00 17.3 5 Sudeste 9 Sur 0 1014.1 1.6 79
2018-05-04 23:00:00 17.4 7 Sur 13 Sur 0 1014 1.5 78
2018-05-04 22:00:00 17.5 6 Sudoeste 16 Sudoeste 0 1013.2 0.2 77
2018-05-04 21:00:00 18.2 11 Oeste 16 Sudoeste 0 1012.5 -0.2 72
2018-05-04 20:00:00 18.2 9 Sur 18 Sur 0 1012.5 0.5 72
2018-05-04 19:00:00 18.6 11 Sur 19 Sur 0 1013 0.9 71
2018-05-04 18:00:00 18.4 10 Sur 27 Sudoeste 0 1012.7 0.5 72
2018-05-04 17:00:00 19.5 16 Sudoeste 27 Sudoeste 0 1012 0.1 66
2018-05-04 16:00:00 19.2 15 Sudoeste 24 Sudoeste 0 1012.1 0.2 68
2018-05-04 15:00:00 19.5 13 Sudoeste 22 Sudoeste 0 1012.2 0.2 68
2018-05-04 14:00:00 18.9 13 Sur 23 Sur 0 1011.9 0.6 69
2018-05-04 13:00:00 19.1 12 Sur 26 Sur 0 1011.9 0.9 71
2018-05-04 12:00:00 18.7 15 Sur 23 Sur 0 1012 1.5 71
2018-05-04 11:00:00 19.3 6 Sur 12 Sur 0 1011.3 1 77
2018-05-04 10:00:00 18.2 5 Sudeste 14 Sudeste 0 1011 0.9 84
2018-05-04 09:00:00 16.9 10 Sudeste 13 Sudeste 0 1010.5 0.4 89
2018-05-04 08:00:00 16.4 8 Este 13 Sudeste 0 1010.3 -0.5 91
2018-05-04 07:00:00 16.4 10 Este 15 Este 0 1010.1 -0.8 91
2018-05-04 06:00:00 16.4 13 Sudeste 15 Sudeste 0 1010.1 -1.1 91
2018-05-04 05:00:00 16 9 Este 17 Sudeste 0 1010.8 -1.1 91
2018-05-04 04:00:00 15.8 14 Sudeste 18 Sudeste 0 1010.9 -1.8 91
2018-05-04 03:00:00 16.5 14 Sudeste 16 Sudeste 0 1011.2 -1.7 90
2018-05-04 02:00:00 17.2 8 Sur 15 Sudeste 0 1011.9 -0.9 87
2018-05-04 01:00:00 17 9 Sudoeste 21 Oeste 0 1012.7 0.1 86
2018-05-04 00:00:00 16.9 12 Sudoeste 24 Oeste 0 1012.9 0.4 86
2018-05-03 23:00:00 17.2 14 Oeste 27 Sudoeste 0 1012.8 0.5 81
2018-05-03 22:00:00 17.1 16 Oeste 30 Oeste 0 1012.6 -0.4 75
2018-05-03 21:00:00 17.4 17 Oeste 34 Oeste 0 1012.5 -0.5 72
2018-05-03 20:00:00 18.3 22 Oeste 32 Oeste 0 1012.3 -1.1 65
2018-05-03 19:00:00 18.7 20 Oeste 35 Sudoeste 0 1013 -1 66
2018-05-03 18:00:00 18.3 20 Oeste 31 Oeste 0 1013 -1.4 65
2018-05-03 17:00:00 18.3 18 Oeste 28 Oeste 0 1013.4 -1.6 65
2018-05-03 16:00:00 18.3 20 Oeste 34 Noroeste 0 1014 -1.2 64
2018-05-03 15:00:00 16.9 25 Oeste 37 Noroeste 0 1014.4 -1.3 71
2018-05-03 14:00:00 17 24 Noroeste 36 Noroeste 0 1015 -0.4 70
2018-05-03 13:00:00 18 16 Noroeste 23 Noroeste 0 1015.2 -0.3 65
2018-05-03 12:00:00 18.4 9 Noroeste 16 Norte 0 1015.7 0.2 58
2018-05-03 11:00:00 16.8 13 Norte 21 Norte 0 1015.4 0 61
2018-05-03 10:00:00 15 14 Norte 19 Norte 0 1015.5 0.3 71
2018-05-03 09:00:00 13.3 13 Norte 19 Norte 0 1015.5 0.2 78
2018-05-03 08:00:00 13.3 8 Norte 15 Nordeste 0 1015.4 -0.3 80
2018-05-03 07:00:00 11.9 8 Nordeste 14 Norte 0 1015.2 -0.6 84
2018-05-03 06:00:00 12.8 9 Norte 12 Norte 0 1015.3 -1.3 81
2018-05-03 05:00:00 13 6 Nordeste 9 Nordeste 0 1015.7 -1.5 78
2018-05-03 04:00:00 13.8 4 Este 8 Este 0 1015.8 -1.5 76
2018-05-03 03:00:00 14.5 5 Este 10 Este 0 1016.6 -1 73
2018-05-03 02:00:00 15.3 4 Nordeste 14 Noroeste 0 1017.2 -0.5 69
2018-05-03 01:00:00 15.6 9 Noroeste 18 Noroeste 0 1017.3 -0.1 66
2018-05-03 00:00:00 15.4 13 Noroeste 19 Noroeste 0 1017.6 0.5 65
2018-05-02 23:00:00 15.4 11 Noroeste 19 Noroeste 0 1017.7 0.6 63
2018-05-02 22:00:00 15.5 12 Noroeste 22 Oeste 0 1017.4 0.1 60
2018-05-02 21:00:00 16.2 12 Oeste 22 Noroeste 0 1017.1 -0.4 55
2018-05-02 20:00:00 17 13 Oeste 23 Oeste 0 1017.1 -0.4 53
2018-05-02 19:00:00 17.4 16 Oeste 23 Oeste 0 1017.3 -0.6 50
2018-05-02 18:00:00 17.7 15 Oeste 25 Oeste 0 1017.5 -0.6 50
2018-05-02 17:00:00 17.4 18 Oeste 25 Oeste 0 1017.5 -0.5 47
2018-05-02 16:00:00 16.6 16 Oeste 26 Oeste 0 1017.9 -0.3 48
2018-05-02 15:00:00 16.9 18 Oeste 27 Oeste 0 1018.1 -0.4 48
2018-05-02 14:00:00 16.8 16 Oeste 26 Oeste 0 1018 -0.2 56
2018-05-02 13:00:00 16.4 15 Noroeste 23 Noroeste 0 1018.2 0.2 64
2018-05-02 12:00:00 16.5 11 Oeste 19 Oeste 0 1018.5 0.9 67
2018-05-02 11:00:00 14.4 7 Norte 10 Norte 0 1018.2 1.1 66
2018-05-02 10:00:00 13.7 4 Norte 9 Nordeste 0 1018 1.2 71
2018-05-02 09:00:00 12.8 7 Nordeste 9 Nordeste 0 1017.6 1 73
2018-05-02 08:00:00 12.2 5 Nordeste 18 Norte 0 1017.1 0.2 72
2018-05-02 07:00:00 13.6 13 Noroeste 20 Norte 0 1016.8 -0.3 71
2018-05-02 06:00:00 14.1 17 Norte 21 Norte 0 1016.6 -0.9 69
2018-05-02 05:00:00 14.4 15 Noroeste 23 Noroeste 0 1016.9 -0.8 69
2018-05-02 04:00:00 13.4 11 Norte 25 Norte 0 1017.1 -0.5 81
2018-05-02 03:00:00 15 17 Noroeste 23 Noroeste 0 1017.5 0 71
2018-05-02 02:00:00 14.8 6 Norte 12 Oeste 0 1017.7 0.6 74
2018-05-02 01:00:00 15.7 8 Noroeste 13 Noroeste 0 1017.6 1 62
2018-05-02 00:00:00 15.6 7 Oeste 12 Oeste 0 1017.5 0.9 63
2018-05-01 23:00:00 15.8 6 Oeste 15 Sur 0 1017.1 0.6 63
2018-05-01 22:00:00 15.8 9 Sur 16 Sudoeste 0 1016.6 -0.3 66
2018-05-01 21:00:00 15.1 9 Sudoeste 19 Oeste 0 1016.6 0.3 65
2018-05-01 20:00:00 15.1 11 Oeste 32 Oeste 0.1 1016.5 0.2 63
2018-05-01 19:00:00 14 20 Norte 45 Norte 0 1016.9 0.4 69
2018-05-01 18:00:00 16.4 21 Oeste 35 Oeste 0 1016.3 -0.2 58
2018-05-01 17:00:00 16.8 21 Oeste 32 Oeste 0 1016.3 -0.6 59
2018-05-01 16:00:00 16.2 18 Oeste 32 Noroeste 0 1016.5 -0.7 60
2018-05-01 15:00:00 16 20 Noroeste 34 Noroeste 0 1016.5 -0.7 60
2018-05-01 14:00:00 14.9 21 Noroeste 32 Noroeste 0 1016.9 0 63
2018-05-01 13:00:00 14.7 23 Noroeste 31 Noroeste 0 1017.2 0.6 69
2018-05-01 12:00:00 15 18 Noroeste 28 Noroeste 0 1017.2 0.9 69
2018-05-01 11:00:00 15 17 Noroeste 26 Noroeste 0 1016.9 1 72
2018-05-01 10:00:00 15.2 10 Oeste 19 Noroeste 0 1016.6 0.9 74
2018-05-01 09:00:00 14 0 Calma 10 Norte 0 1016.3 0.7 79
2018-05-01 08:00:00 13.5 9 Noroeste 19 Norte 0 1015.9 0.3 80
2018-05-01 07:00:00 13.6 14 Noroeste 23 Norte 0 1015.7 -0.3 80
2018-05-01 06:00:00 13.6 18 Noroeste 27 Norte 0 1015.6 -0.8 78
2018-05-01 05:00:00 14.3 18 Noroeste 28 Noroeste 0 1015.6 -1.3 74
2018-05-01 04:00:00 14.5 20 Noroeste 29 Norte 0 1016 -1.1 71
2018-05-01 03:00:00 14.9 21 Noroeste 33 Noroeste 0 1016.4 -0.8 69
2018-05-01 02:00:00 15.4 13 Oeste 24 Oeste 0 1016.9 -0.4 63
2018-05-01 01:00:00 15.1 14 Oeste 24 Oeste 0 1017.1 0.4 65
2018-05-01 00:00:00 14.8 13 Oeste 23 Oeste 0 1017.2 1 65
2018-04-30 23:00:00 14.6 12 Oeste 20 Oeste 0 1017.3 1.3 65
2018-04-30 22:00:00 14.7 14 Oeste 24 Oeste 0 1016.7 0.6 61
2018-04-30 21:00:00 15.6 10 Oeste 22 Oeste 0 1016.2 0.2 56
2018-04-30 20:00:00 16.9 13 Oeste 19 Sudoeste 0 1016 -0.4 53
2018-04-30 19:00:00 15.8 12 Oeste 23 Oeste 0 1016.1 -0.7 57
2018-04-30 18:00:00 16.1 13 Oeste 26 Oeste 0 1016 -1.1 56
2018-04-30 17:00:00 16 12 Oeste 21 Noroeste 0 1016.4 -0.9 56
2018-04-30 16:00:00 15.7 12 Oeste 26 Noroeste 0 1016.8 -0.9 59
2018-04-30 15:00:00 16.2 14 Oeste 31 Noroeste 0 1017.1 -0.5 55
2018-04-30 14:00:00 15.7 10 Oeste 20 Oeste 0 1017.3 0 54
2018-04-30 13:00:00 16.7 9 Oeste 16 Oeste 0 1017.7 0.3 52
2018-04-30 12:00:00 15.4 7 Norte 13 Norte 0 1017.6 0.2 59
2018-04-30 11:00:00 15.3 5 Nordeste 14 Este 0 1017.3 0.4 59
2018-04-30 10:00:00 14.2 8 Nordeste 14 Nordeste 0 1017.4 0.7 61
2018-04-30 09:00:00 12.9 7 Nordeste 14 Norte 0 1017.4 0.6 69
2018-04-30 08:00:00 11.7 10 Nordeste 15 Nordeste 0 1016.9 -0.1 72
2018-04-30 07:00:00 12.1 10 Nordeste 15 Nordeste 0 1016.7 -0.7 71
2018-04-30 06:00:00 12.6 8 Nordeste 30 Norte 0 1016.8 -1 69
2018-04-30 05:00:00 12.9 10 Norte 13 Norte 0 1017 -1.2 67
2018-04-30 04:00:00 13.7 7 Norte 13 Nordeste 0 1017.4 -0.8 66
2018-04-30 03:00:00 14.9 11 Norte 18 Noroeste 0 1017.8 -0.5 63
2018-04-30 02:00:00 15.4 12 Noroeste 26 Noroeste 0 1018.2 -0.1 57
2018-04-30 01:00:00 15.3 18 Noroeste 27 Noroeste 0 1018.2 0.5 57
2018-04-30 00:00:00 15.2 15 Oeste 29 Oeste 0 1018.3 0.7 59
2018-04-29 23:00:00 15.1 14 Oeste 31 Oeste 0 1018.3 0.9 63
2018-04-29 22:00:00 15.1 18 Oeste 35 Oeste 0 1017.7 0 60
2018-04-29 21:00:00 15.7 17 Oeste 33 Oeste 0 1017.6 -0.1 57
2018-04-29 20:00:00 16.7 19 Oeste 37 Oeste 0 1017.4 -0.4 53
2018-04-29 19:00:00 17.6 22 Oeste 40 Oeste 0 1017.7 -0.5 50
2018-04-29 18:00:00 17.9 19 Oeste 38 Oeste 0 1017.7 -0.9 51
2018-04-29 17:00:00 17.5 20 Oeste 33 Oeste 0 1017.8 -0.7 50
2018-04-29 16:00:00 17.8 17 Oeste 34 Oeste 0 1018.2 -0.6 51
2018-04-29 15:00:00 17 19 Oeste 34 Oeste 0 1018.6 0 53
2018-04-29 14:00:00 16.5 17 Oeste 32 Sudoeste 0 1018.5 0.5 54
2018-04-29 13:00:00 15.8 18 Oeste 30 Oeste 0 1018.8 1.4 58
2018-04-29 12:00:00 15.1 17 Oeste 44 Noroeste 0.3 1018.6 2 61
2018-04-29 11:00:00 15.6 17 Oeste 30 Oeste 0 1018 2.3 60
2018-04-29 10:00:00 13.9 15 Oeste 32 Noroeste 0.1 1017.4 2.7 60
2018-04-29 09:00:00 14.3 19 Noroeste 32 Oeste 0 1016.6 2.4 60
2018-04-29 08:00:00 13.8 17 Oeste 30 Noroeste 0 1015.7 1.9 63
2018-04-29 07:00:00 14 20 Oeste 31 Noroeste 0 1014.7 1.2 63
2018-04-29 06:00:00 14 19 Oeste 37 Noroeste 0 1014.2 0.5 63
2018-04-29 05:00:00 13.7 21 Oeste 46 Oeste 0 1013.8 -0.1 69
2018-04-29 04:00:00 14 22 Oeste 36 Oeste 0.1 1013.5 -0.3 65
2018-04-29 03:00:00 14.4 16 Oeste 37 Sudoeste 0 1013.7 0.1 64
2018-04-29 02:00:00 14.1 23 Oeste 47 Oeste 0 1013.9 0.6 62
2018-04-29 01:00:00 13.7 19 Oeste 46 Oeste 0.5 1013.8 1 72
2018-04-29 00:00:00 14.2 23 Oeste 41 Oeste 0.2 1013.6 0.8 66
2018-04-28 23:00:00 13.3 13 Oeste 60 Sudoeste 1.4 1013.3 0.7 84
2018-04-28 22:00:00 15.3 17 Sudoeste 35 Sudoeste 0 1012.8 -0.4 62
2018-04-28 21:00:00 15.2 19 Sudoeste 36 Oeste 0.1 1012.8 -0.4 70
2018-04-28 20:00:00 16.1 15 Sudoeste 29 Sudoeste 0 1012.6 -1.1 53
2018-04-28 19:00:00 17.5 14 Sudoeste 26 Sudoeste 0 1013.2 -1.2 46
2018-04-28 18:00:00 18.3 14 Sudoeste 24 Sudoeste 0 1013.2 -1.7 44
2018-04-28 17:00:00 18 16 Sudoeste 23 Sudoeste 0 1013.7 -1.8 46
2018-04-28 16:00:00 17.6 12 Oeste 22 Oeste 0 1014.4 -1.4 47
2018-04-28 15:00:00 16.9 12 Sudoeste 26 Oeste 0 1014.9 -0.9 47
2018-04-28 14:00:00 16.7 15 Oeste 29 Oeste 0 1015.5 0.2 51
2018-04-28 13:00:00 16.3 15 Oeste 27 Noroeste 0 1015.8 0.6 52
2018-04-28 12:00:00 15.8 16 Noroeste 26 Noroeste 0 1015.8 1.2 49
2018-04-28 11:00:00 15.9 13 Noroeste 27 Noroeste 0 1015.3 1.2 51
2018-04-28 10:00:00 14.8 15 Noroeste 29 Noroeste 0 1015.2 1.6 55
2018-04-28 09:00:00 14.6 18 Noroeste 27 Noroeste 0 1014.6 1 70
2018-04-28 08:00:00 14.9 16 Noroeste 32 Noroeste 0 1014.1 0.3 72
2018-04-28 07:00:00 15.2 14 Noroeste 27 Noroeste 0 1013.6 -0.2 74
2018-04-28 06:00:00 15.5 17 Noroeste 28 Noroeste 0 1013.6 -0.3 76
2018-04-28 05:00:00 16.3 14 Noroeste 23 Noroeste 0 1013.8 -0.1 78
2018-04-28 04:00:00 16.9 15 Noroeste 23 Noroeste 0 1013.8 -0.5 76
2018-04-28 03:00:00 17.6 15 Noroeste 31 Noroeste 0 1013.9 -0.7 76
2018-04-28 02:00:00 17.9 19 Noroeste 28 Noroeste 0 1013.9 -0.8 78
2018-04-28 01:00:00 17.6 13 Oeste 23 Oeste 0 1014.3 -0.2 84
2018-04-28 00:00:00 17.8 12 Oeste 21 Oeste 0 1014.6 0.6 78
2018-04-27 23:00:00 17.8 13 Oeste 23 Oeste 0 1014.7 0.6 77
2018-04-27 22:00:00 17.9 14 Oeste 28 Oeste 0 1014.5 0.1 74
2018-04-27 21:00:00 18.5 21 Oeste 30 Oeste 0 1014 -0.6 64
2018-04-27 20:00:00 19.7 18 Oeste 31 Oeste 0 1014.1 -0.9 62
2018-04-27 19:00:00 20.1 18 Oeste 28 Oeste 0 1014.4 -1.1 59
2018-04-27 18:00:00 20.5 14 Oeste 26 Oeste 0 1014.6 -1.3 55
2018-04-27 17:00:00 19.6 16 Oeste 26 Oeste 0 1015 -1.2 62
2018-04-27 16:00:00 19.8 12 Oeste 19 Oeste 0 1015.5 -1 70
2018-04-27 15:00:00 19.5 12 Oeste 21 Noroeste 0 1015.9 -0.8 67
2018-04-27 14:00:00 19.3 12 Oeste 21 Oeste 0 1016.2 -0.4 71
2018-04-27 13:00:00 19.7 9 Oeste 17 Oeste 0 1016.5 0.4 71
2018-04-27 12:00:00 19.4 8 Oeste 16 Oeste 0 1016.7 0.8 74
2018-04-27 11:00:00 18.5 7 Noroeste 15 Noroeste 0 1016.6 1 77
2018-04-27 10:00:00 17.6 3 Norte 5 Norte 0 1016.1 0.5 80
2018-04-27 09:00:00 16.3 3 Nordeste 9 Este 0 1015.9 0 83
2018-04-27 08:00:00 16.2 3 Este 7 Este 0 1015.6 -0.5 90
2018-04-27 07:00:00 16.7 4 Nordeste 10 Norte 0 1015.6 -0.8 90
2018-04-27 06:00:00 17 8 Norte 12 Norte 0 1015.9 -1.1 90
2018-04-27 05:00:00 17.3 9 Noroeste 13 Noroeste 0 1016.1 -1.2 87
2018-04-27 04:00:00 17.5 6 Noroeste 13 Noroeste 0 1016.4 -1.5 76
2018-04-27 03:00:00 17.3 4 Sudeste 12 Sudeste 0 1017 -1 75
2018-04-27 02:00:00 17.2 9 Sudeste 13 Este 0 1017.3 -0.9 78
2018-04-27 01:00:00 18.1 10 Este 14 Sudeste 0 1017.9 0.7 81
2018-04-27 00:00:00 17.5 10 Sudeste 15 Sur 0 1018 1.1 86
2018-04-26 23:00:00 17.9 10 Sur 19 Sudeste 0 1018.2 1.6 85
2018-04-26 22:00:00 18.1 13 Sudeste 19 Sur 0 1017.2 0.7 84
2018-04-26 21:00:00 18.6 12 Sur 18 Sur 0 1016.9 0.5 81
2018-04-26 20:00:00 19.7 8 Sur 14 Sur 0 1016.6 -0.1 73
2018-04-26 19:00:00 20.3 8 Sur 18 Sudoeste 0 1016.5 -0.3 71
2018-04-26 18:00:00 20.2 9 Sur 18 Sur 0 1016.4 -0.4 71
2018-04-26 17:00:00 20.5 9 Sur 21 Sudoeste 0 1016.7 -0.4 69
2018-04-26 16:00:00 19.8 12 Sudoeste 20 Sur 0 1016.8 -0.2 71
2018-04-26 15:00:00 19.3 11 Sur 19 Sur 0 1016.8 0 73
2018-04-26 14:00:00 19.3 9 Sur 17 Sur 0 1017.1 0.3 74
2018-04-26 13:00:00 19.6 8 Sur 15 Sur 0 1017 0.7 74
2018-04-26 12:00:00 18.5 8 Sur 15 Sur 0 1016.8 0.9 78
2018-04-26 11:00:00 17.9 7 Sur 11 Sur 0 1016.8 1.3 83
2018-04-26 10:00:00 17.6 4 Sur 9 Oeste 0 1016.3 1.4 87
2018-04-26 09:00:00 16.8 4 Sudoeste 9 Sur 0 1015.9 1 90
2018-04-26 08:00:00 16.2 6 Sudeste 15 Sudeste 0 1015.5 0.7 91
2018-04-26 07:00:00 16.2 11 Sudeste 18 Este 0 1014.9 0.6 92
2018-04-26 06:00:00 16.1 14 Sudeste 26 Sudeste 0 1014.9 -0.1 92
2018-04-26 05:00:00 16.4 18 Sudeste 24 Este 0 1014.8 -2.1 91
2018-04-26 04:00:00 16.7 12 Sur 29 Sudeste 0 1014.3 -2.7 90
2018-04-26 03:00:00 16.4 20 Sudeste 35 Sudoeste 0.9 1015 -1.4 94
2018-04-26 02:00:00 16.3 12 Sudoeste 29 Norte 4.9 1016.9 0.3 94
2018-04-26 01:00:00 16.7 10 Sur 19 Sur 0 1017 0.9 89
2018-04-26 00:00:00 16.6 12 Sur 22 Sur 0 1016.4 1 89
2018-04-25 23:00:00 17 15 Sur 22 Sur 0 1016.6 2.1 88
2018-04-25 22:00:00 17.2 12 Sur 19 Sur 0 1016.1 1.4 87
2018-04-25 21:00:00 17.3 10 Sur 22 Sur 0 1015.4 0.7 85
2018-04-25 20:00:00 18.2 12 Sur 26 Sur 0 1014.5 -0.3 82
2018-04-25 19:00:00 19 14 Sur 22 Sur 0 1014.7 -0.4 77
2018-04-25 18:00:00 19.3 9 Sur 17 Sur 0 1014.7 -0.6 74
2018-04-25 17:00:00 20.1 10 Sur 18 Sur 0 1014.8 -0.2 77
2018-04-25 16:00:00 19.7 10 Sur 17 Sur 0 1015.1 -0.3 77
2018-04-25 15:00:00 20.3 6 Sur 13 Sudoeste 0 1015.3 -0.3 75
2018-04-25 14:00:00 19.1 9 Sudoeste 18 Sudoeste 0 1015 -0.4 78
2018-04-25 13:00:00 19.2 8 Sudoeste 15 Sudoeste 0 1015.4 0 75
2018-04-25 12:00:00 19.9 5 Sur 14 Oeste 0 1015.6 1.2 79
2018-04-25 11:00:00 18.7 5 Sudoeste 13 Oeste 0 1015.4 1.2 82
2018-04-25 10:00:00 17.6 7 Sudoeste 22 Sur 0 1015.4 1.4 90
2018-04-25 09:00:00 17.1 13 Sur 24 Sur 0 1014.4 0.4 90
2018-04-25 08:00:00 17.1 12 Sudeste 18 Sur 0 1014.2 0.2 86
2018-04-25 07:00:00 17.3 7 Sudeste 15 Sudeste 0 1014 1.2 85
2018-04-25 06:00:00 17.3 6 Sur 19 Sudeste 0 1014 0.1 85
2018-04-25 05:00:00 17.8 15 Sudeste 18 Sudeste 0 1014 -0.7 83
2018-04-25 04:00:00 17.6 6 Oeste 10 Oeste 0 1012.8 -1.8 79
2018-04-25 03:00:00 17.8 4 Oeste 8 Sur 0 1013.9 -0.5 82
2018-04-25 02:00:00 18 5 Sur 15 Sur 0 1014.7 0.7 86
2018-04-25 01:00:00 18.4 7 Sur 14 Sur 0 1014.6 1.5 86
2018-04-25 00:00:00 19.3 4 Sudoeste 9 Noroeste 0 1014.4 1.8 76
2018-04-24 23:00:00 19.5 8 Noroeste 12 Noroeste 0 1014 1.7 70
2018-04-24 22:00:00 19.3 4 Noroeste 15 Norte 0 1013.1 0.3 74
2018-04-24 21:00:00 19.2 12 Noroeste 18 Norte 0 1012.6 -0.2 71
2018-04-24 20:00:00 20.8 11 Noroeste 18 Noroeste 0 1012.3 -0.6 62
2018-04-24 19:00:00 21.1 13 Noroeste 18 Oeste 0 1012.8 -0.7 65
2018-04-24 18:00:00 20.6 14 Oeste 22 Oeste 0 1012.8 -0.5 67
2018-04-24 17:00:00 20.1 14 Oeste 23 Oeste 0 1012.9 -0.6 71
2018-04-24 16:00:00 21.7 13 Oeste 24 Oeste 0 1013.5 -0.2 65
2018-04-24 15:00:00 20.8 14 Oeste 25 Sur 0 1013.3 -0.1 67
2018-04-24 14:00:00 20.3 13 Sudoeste 23 Sudoeste 0 1013.5 0.3 67
2018-04-24 13:00:00 20.8 12 Sur 26 Sudeste 0 1013.7 0.7 61
2018-04-24 12:00:00 21.3 18 Sudeste 26 Sudeste 0 1013.4 0.9 60
2018-04-24 11:00:00 20.2 8 Este 12 Este 0 1013.2 1.1 73
2018-04-24 10:00:00 17.9 9 Este 12 Este 0 1013 1.6 84
2018-04-24 09:00:00 17.4 4 Este 9 Nordeste 0 1012.5 1 87
2018-04-24 08:00:00 17.5 4 Este 17 Sudeste 0 1012.1 0.2 88
2018-04-24 07:00:00 17.5 13 Sudeste 27 Sur 0 1011.4 -0.4 88
2018-04-24 06:00:00 17.6 12 Sur 19 Sur 0 1011.5 0.4 81
2018-04-24 05:00:00 17.7 2 Sudeste 11 Este 0 1011.9 0.4 78
2018-04-24 04:00:00 17.9 8 Este 17 Este 0 1011.8 0.1 76
2018-04-24 03:00:00 17.8 7 Este 12 Sudeste 0 1011.1 -1.2 78
2018-04-24 02:00:00 18 6 Este 9 Este 0 1011.5 -0.4 78
2018-04-24 01:00:00 17.8 4 Nordeste 8 Nordeste 0 1011.7 0.2 78
2018-04-24 00:00:00 18 3 Norte 10 Noroeste 0 1012.3 1.7 83